createdAt,value
2023-02-11T00:00:41.918Z,32.15
2023-02-11T00:03:08.974Z,34.53
2023-02-11T00:05:35.669Z,33.10
2023-02-11T00:08:02.440Z,33.67
2023-02-11T00:10:29.101Z,33.10
2023-02-11T00:12:56.453Z,39.13
2023-02-11T00:15:23.169Z,35.10
2023-02-11T00:17:49.851Z,41.10
2023-02-11T00:20:16.603Z,35.90
2023-02-11T00:22:43.691Z,35.53
2023-02-11T00:25:10.455Z,39.30
2023-02-11T00:27:37.789Z,34.92
2023-02-11T00:30:05.393Z,34.40
2023-02-11T00:32:32.541Z,39.50
2023-02-11T00:34:59.244Z,38.10
2023-02-11T00:37:25.922Z,37.00
2023-02-11T00:39:52.805Z,37.50
2023-02-11T00:42:19.520Z,38.78
2023-02-11T00:44:46.143Z,36.17
2023-02-11T00:47:12.845Z,35.28
2023-02-11T00:49:40.425Z,37.38
2023-02-11T00:52:07.179Z,34.67
2023-02-11T00:54:33.827Z,38.15
2023-02-11T00:57:00.472Z,40.00
2023-02-11T00:59:27.229Z,38.45
2023-02-11T01:01:54.045Z,38.13
2023-02-11T01:04:20.908Z,39.67
2023-02-11T01:06:47.645Z,39.35
2023-02-11T01:09:14.290Z,34.88
2023-02-11T01:11:41.148Z,33.05
2023-02-11T01:14:07.836Z,27.65
2023-02-11T01:16:34.629Z,28.08
2023-02-11T01:19:01.335Z,32.28
2023-02-11T01:21:28.081Z,33.65
2023-02-11T01:23:54.712Z,30.30
2023-02-11T01:26:21.535Z,30.55
2023-02-11T01:28:48.316Z,32.88
2023-02-11T01:31:15.176Z,31.20
2023-02-11T01:33:42.067Z,33.83
2023-02-11T01:36:08.973Z,39.17
2023-02-11T01:38:35.735Z,28.48
2023-02-11T01:41:06.181Z,29.80
2023-02-11T01:43:37.501Z,32.33
2023-02-11T01:46:04.165Z,36.67
2023-02-11T01:48:41.169Z,33.33
2023-02-11T01:51:30.959Z,32.95
2023-02-11T01:54:16.703Z,34.58
2023-02-11T01:57:05.832Z,31.58
2023-02-11T02:00:00.207Z,32.80
2023-02-11T02:02:37.428Z,27.48
2023-02-11T02:05:16.487Z,29.65
2023-02-11T02:07:52.658Z,28.03
2023-02-11T02:10:22.732Z,27.83
2023-02-11T02:12:49.521Z,35.85
2023-02-11T02:15:27.023Z,32.92
2023-02-11T02:18:17.662Z,37.50
2023-02-11T02:21:03.296Z,36.05
2023-02-11T02:23:47.309Z,30.40
2023-02-11T02:26:22.503Z,28.17
2023-02-11T02:29:10.831Z,25.33
2023-02-11T02:31:47.237Z,31.58
2023-02-11T02:34:33.110Z,30.10
2023-02-11T02:37:15.155Z,34.20
2023-02-11T02:39:42.093Z,31.02
2023-02-11T02:42:09.194Z,30.30
2023-02-11T02:44:35.867Z,34.28
2023-02-11T02:47:02.634Z,28.00
2023-02-11T02:49:29.459Z,29.67
2023-02-11T02:52:37.972Z,30.20
2023-02-11T02:55:24.863Z,32.55
2023-02-11T02:58:10.161Z,29.35
2023-02-11T03:01:08.373Z,34.25
2023-02-11T03:04:03.316Z,30.20
2023-02-11T03:06:57.580Z,34.70
2023-02-11T03:09:42.438Z,31.52
2023-02-11T03:12:12.535Z,29.48
2023-02-11T03:14:41.297Z,30.38
2023-02-11T03:17:10.157Z,26.15
2023-02-11T03:19:41.174Z,27.40
2023-02-11T03:22:33.227Z,25.30
2023-02-11T03:25:01.598Z,20.70
2023-02-11T03:27:45.951Z,26.65
2023-02-11T03:30:22.011Z,22.50
2023-02-11T03:32:52.460Z,25.30
2023-02-11T03:35:27.178Z,25.33
2023-02-11T03:38:12.426Z,22.20
2023-02-11T03:40:41.284Z,26.58
2023-02-11T03:43:19.853Z,22.05
2023-02-11T03:45:48.583Z,21.20
2023-02-11T03:48:31.797Z,26.25
2023-02-11T03:51:01.228Z,23.88
2023-02-11T03:53:27.928Z,22.38
2023-02-11T03:55:56.543Z,23.20
2023-02-11T03:58:23.207Z,21.58
2023-02-11T04:00:49.949Z,21.38
2023-02-11T04:03:16.707Z,24.42
2023-02-11T04:05:43.414Z,29.63
2023-02-11T04:08:10.214Z,25.88
2023-02-11T04:10:37.280Z,24.55
2023-02-11T04:13:03.953Z,20.95
2023-02-11T04:15:30.633Z,20.83
2023-02-11T04:17:57.239Z,21.23
2023-02-11T04:20:24.058Z,20.77
2023-02-11T04:22:50.680Z,23.20
2023-02-11T04:25:17.521Z,24.10
2023-02-11T04:27:44.174Z,21.42
2023-02-11T04:30:11.342Z,24.27
2023-02-11T04:32:38.001Z,24.60
2023-02-11T04:35:05.114Z,23.27
2023-02-11T04:37:31.775Z,23.58
2023-02-11T04:39:58.450Z,22.10
2023-02-11T04:42:25.149Z,25.63
2023-02-11T04:44:51.793Z,25.25
2023-02-11T04:47:18.454Z,28.10
2023-02-11T04:49:45.091Z,24.70
2023-02-11T04:52:11.804Z,23.17
2023-02-11T04:54:38.634Z,23.10
2023-02-11T04:57:05.463Z,23.08
2023-02-11T04:59:32.171Z,28.85
2023-02-11T05:01:58.855Z,26.20
2023-02-11T05:04:25.562Z,26.67
2023-02-11T05:06:52.261Z,28.88
2023-02-11T05:09:19.072Z,22.98
2023-02-11T05:11:45.811Z,37.60
2023-02-11T05:14:12.593Z,43.97
2023-02-11T05:16:39.372Z,40.75
2023-02-11T05:19:06.184Z,42.67
2023-02-11T05:21:32.999Z,47.13
2023-02-11T05:23:59.661Z,39.90
2023-02-11T05:26:26.757Z,46.30
2023-02-11T05:28:53.428Z,42.13
2023-02-11T05:31:20.163Z,42.55
2023-02-11T05:33:46.794Z,43.35
2023-02-11T05:36:13.722Z,42.50
2023-02-11T05:38:42.419Z,39.15
2023-02-11T05:41:09.522Z,47.63
2023-02-11T05:43:36.708Z,43.83
2023-02-11T05:46:04.735Z,46.80
2023-02-11T05:48:31.871Z,41.70
2023-02-11T05:50:58.633Z,50.63
2023-02-11T05:53:25.431Z,48.05
2023-02-11T05:55:52.448Z,60.67
2023-02-11T05:58:19.296Z,51.60
2023-02-11T06:00:45.966Z,54.42
2023-02-11T06:03:12.786Z,50.63
2023-02-11T06:05:39.529Z,44.90
2023-02-11T06:08:06.153Z,40.90
2023-02-11T06:10:32.827Z,42.88
2023-02-11T06:12:59.478Z,42.50
2023-02-11T06:15:26.312Z,41.15
2023-02-11T06:17:53.107Z,50.05
2023-02-11T06:20:20.233Z,47.72
2023-02-11T06:22:47.010Z,41.60
2023-02-11T06:25:14.990Z,49.53
2023-02-11T06:27:41.708Z,51.50
2023-02-11T06:30:09.736Z,45.78
2023-02-11T06:32:43.732Z,49.72
2023-02-11T06:35:12.258Z,46.00
2023-02-11T06:37:39.953Z,51.00
2023-02-11T06:40:06.993Z,45.13
2023-02-11T06:42:34.561Z,46.13
2023-02-11T06:45:01.303Z,44.10
2023-02-11T06:47:27.996Z,40.30
2023-02-11T06:49:54.627Z,42.10
2023-02-11T06:52:21.329Z,36.38
2023-02-11T06:54:48.044Z,43.53
2023-02-11T06:57:14.705Z,38.90
2023-02-11T06:59:41.522Z,38.33
2023-02-11T07:02:10.483Z,40.58
2023-02-11T07:04:37.262Z,52.80
2023-02-11T07:07:03.962Z,52.28
2023-02-11T07:09:30.675Z,46.00
2023-02-11T07:11:57.352Z,42.17
2023-02-11T07:14:24.056Z,46.03
2023-02-11T07:16:50.709Z,46.58
2023-02-11T07:19:17.624Z,40.63
2023-02-11T07:21:44.262Z,37.88
2023-02-11T07:24:11.495Z,63.13
2023-02-11T07:26:38.389Z,48.10
2023-02-11T07:29:05.318Z,38.50
2023-02-11T07:31:32.559Z,38.20
2023-02-11T07:34:03.351Z,35.03
2023-02-11T07:36:31.981Z,40.90
2023-02-11T07:39:00.248Z,38.72
2023-02-11T07:41:27.373Z,41.88
2023-02-11T07:43:54.636Z,100.57
2023-02-11T07:46:24.502Z,53.92
2023-02-11T07:48:51.931Z,90.28
2023-02-11T07:51:20.018Z,57.58
2023-02-11T07:53:47.212Z,74.63
2023-02-11T07:56:15.330Z,72.47
2023-02-11T07:58:43.140Z,68.10
2023-02-11T08:01:13.358Z,43.65
2023-02-11T08:03:41.958Z,36.90
2023-02-11T08:06:14.288Z,32.33
2023-02-11T08:08:41.463Z,36.78
2023-02-11T08:11:10.474Z,39.85
2023-02-11T08:13:37.536Z,41.28
2023-02-11T08:16:05.221Z,43.45
2023-02-11T08:18:33.036Z,41.15
2023-02-11T08:21:06.979Z,42.35
2023-02-11T08:23:34.076Z,46.70
2023-02-11T08:26:05.065Z,45.85
2023-02-11T08:28:31.846Z,43.75
2023-02-11T08:30:58.639Z,42.60
2023-02-11T08:33:25.470Z,47.53
2023-02-11T08:35:52.110Z,43.50
2023-02-11T08:38:18.771Z,43.42
2023-02-11T08:40:45.404Z,43.63
2023-02-11T08:43:12.099Z,46.15
2023-02-11T08:45:38.810Z,46.78
2023-02-11T08:48:05.613Z,44.20
2023-02-11T08:50:32.283Z,42.35
2023-02-11T08:52:59.001Z,40.88
2023-02-11T08:55:25.644Z,46.53
2023-02-11T08:57:52.278Z,43.35
2023-02-11T09:00:19.349Z,44.63
2023-02-11T09:02:46.032Z,43.80
2023-02-11T09:05:12.990Z,46.05
2023-02-11T09:07:39.669Z,50.85
2023-02-11T09:10:06.910Z,48.88
2023-02-11T09:12:33.562Z,44.33
2023-02-11T09:15:00.194Z,41.45
2023-02-11T09:17:26.886Z,44.72
2023-02-11T09:19:53.514Z,44.72
2023-02-11T09:22:20.147Z,43.70
2023-02-11T09:24:46.744Z,40.88
2023-02-11T09:27:13.397Z,48.58
2023-02-11T09:29:40.065Z,46.05
2023-02-11T09:32:09.662Z,55.50
2023-02-11T09:34:36.799Z,51.55
2023-02-11T09:37:03.497Z,47.60
2023-02-11T09:39:30.225Z,45.38
2023-02-11T09:42:07.811Z,47.83
2023-02-11T09:44:36.229Z,47.83
2023-02-11T09:47:26.921Z,54.25
2023-02-11T09:50:02.293Z,48.00
2023-02-11T09:52:41.702Z,40.50
2023-02-11T09:55:29.167Z,45.90
2023-02-11T09:57:57.509Z,46.53
2023-02-11T10:00:32.223Z,41.38
2023-02-11T10:03:26.496Z,43.97
2023-02-11T10:06:30.820Z,55.25
2023-02-11T10:09:19.015Z,51.10
2023-02-11T10:11:57.562Z,53.17
2023-02-11T10:14:54.539Z,51.20
2023-02-11T10:17:46.798Z,51.10
2023-02-11T10:20:42.361Z,53.65
2023-02-11T10:23:11.104Z,52.88
2023-02-11T10:25:59.477Z,46.83
2023-02-11T10:28:37.002Z,47.78
2023-02-11T10:31:15.026Z,51.33
2023-02-11T10:34:01.868Z,49.15
2023-02-11T10:36:33.165Z,41.67
2023-02-11T10:39:14.577Z,45.60
2023-02-11T10:42:06.746Z,46.08
2023-02-11T10:44:48.800Z,45.25
2023-02-11T10:47:23.540Z,50.28
2023-02-11T10:49:50.276Z,50.08
2023-02-11T10:52:24.044Z,50.47
2023-02-11T10:54:59.286Z,53.15
2023-02-11T10:57:33.873Z,54.38
2023-02-11T11:00:26.838Z,50.53
2023-02-11T11:02:57.308Z,54.45
2023-02-11T11:05:32.838Z,52.53
2023-02-11T11:08:08.963Z,66.53
2023-02-11T11:10:43.737Z,52.92
2023-02-11T11:13:27.133Z,49.88
2023-02-11T11:16:27.278Z,51.78
2023-02-11T11:21:47.174Z,50.95
2023-02-11T11:24:21.416Z,51.50
2023-02-11T11:26:53.883Z,52.67
2023-02-11T11:29:42.858Z,48.15
2023-02-11T11:32:37.142Z,52.67
2023-02-11T11:35:09.590Z,48.55
2023-02-11T11:37:38.125Z,51.42
2023-02-11T11:40:16.823Z,49.88
2023-02-11T11:42:43.788Z,48.65
2023-02-11T11:45:17.596Z,49.67
2023-02-11T11:48:00.535Z,42.38
2023-02-11T11:50:40.018Z,46.88
2023-02-11T11:53:30.154Z,44.53
2023-02-11T11:56:21.714Z,44.88
2023-02-11T11:58:50.120Z,43.50
2023-02-11T12:01:43.770Z,44.72
2023-02-11T12:04:28.410Z,49.58
2023-02-11T12:07:14.213Z,43.55
2023-02-11T12:09:59.573Z,44.78
2023-02-11T12:12:34.139Z,44.08
2023-02-11T12:15:15.883Z,44.70
2023-02-11T12:17:51.371Z,45.35
2023-02-11T12:20:56.031Z,46.25
2023-02-11T12:23:55.608Z,40.05
2023-02-11T12:26:26.762Z,42.50
2023-02-11T12:29:19.895Z,42.83
2023-02-11T12:32:21.444Z,43.53
2023-02-11T12:35:05.899Z,36.63
2023-02-11T12:37:50.739Z,42.63
2023-02-11T12:40:33.401Z,42.63
2023-02-11T12:43:17.719Z,38.00
2023-02-11T12:45:47.427Z,41.28
2023-02-11T12:48:35.636Z,39.38
2023-02-11T12:51:29.152Z,37.80
2023-02-11T12:54:13.988Z,41.05
2023-02-11T12:57:06.667Z,37.00
2023-02-11T12:59:49.972Z,39.92
2023-02-11T13:02:28.396Z,36.78
2023-02-11T13:05:00.117Z,37.20
2023-02-11T13:07:37.169Z,37.58
2023-02-11T13:10:32.038Z,37.70
2023-02-11T13:13:18.622Z,45.75
2023-02-11T13:16:12.483Z,38.67
2023-02-11T13:19:20.428Z,40.40
2023-02-11T13:21:56.189Z,39.53
2023-02-11T13:24:44.608Z,39.97
2023-02-11T13:27:36.026Z,41.30
2023-02-11T13:30:28.079Z,38.28
2023-02-11T13:32:54.719Z,42.88
2023-02-11T13:35:29.656Z,34.63
2023-02-11T13:37:57.732Z,35.67
2023-02-11T13:40:37.193Z,34.72
2023-02-11T13:43:07.116Z,36.33
2023-02-11T13:45:44.411Z,35.30
2023-02-11T13:48:31.482Z,32.78
2023-02-11T13:51:02.252Z,33.70
2023-02-11T13:53:30.194Z,36.03
2023-02-11T13:56:23.221Z,40.08
2023-02-11T13:58:51.349Z,40.65
2023-02-11T14:02:09.680Z,36.22
2023-02-11T14:04:55.374Z,36.53
2023-02-11T14:07:53.267Z,40.38
2023-02-11T14:10:41.634Z,36.30
2023-02-11T14:13:32.546Z,33.22
2023-02-11T14:16:20.352Z,34.47
2023-02-11T14:18:55.070Z,34.13
2023-02-11T14:21:27.523Z,35.72
2023-02-11T14:24:14.416Z,35.47
2023-02-11T14:26:52.231Z,37.80
2023-02-11T14:29:23.015Z,42.38
2023-02-11T14:32:06.023Z,34.88
2023-02-11T14:34:51.574Z,32.65
2023-02-11T14:37:26.888Z,34.67
2023-02-11T14:40:16.264Z,35.95
2023-02-11T14:42:43.116Z,36.87
2023-02-11T14:45:15.117Z,34.50
2023-02-11T14:47:58.074Z,36.95
2023-02-11T14:50:28.726Z,34.22
2023-02-11T14:52:58.791Z,36.33
2023-02-11T14:55:41.494Z,31.30
2023-02-11T14:58:16.832Z,37.28
2023-02-11T15:00:51.031Z,39.33
2023-02-11T15:03:25.206Z,35.92
2023-02-11T15:06:14.796Z,39.00
2023-02-11T15:08:46.808Z,42.08
2023-02-11T15:11:15.849Z,38.13
2023-02-11T15:13:47.576Z,35.15
2023-02-11T15:16:18.609Z,31.02
2023-02-11T15:19:07.359Z,36.92
2023-02-11T15:21:35.973Z,32.28
2023-02-11T15:24:06.413Z,33.63
2023-02-11T15:26:33.486Z,37.88
2023-02-11T15:29:00.629Z,39.25
2023-02-11T15:31:28.477Z,44.70
2023-02-11T15:33:55.333Z,41.45
2023-02-11T15:36:28.606Z,39.85
2023-02-11T15:39:34.270Z,32.47
2023-02-11T15:42:27.100Z,35.33
2023-02-11T15:45:14.539Z,32.85
2023-02-11T15:47:48.514Z,32.63
2023-02-11T15:50:30.293Z,29.67
2023-02-11T15:53:21.920Z,31.35
2023-02-11T15:55:51.423Z,33.40
2023-02-11T15:58:18.430Z,35.67
2023-02-11T16:00:54.684Z,30.95
2023-02-11T16:03:28.692Z,36.83
2023-02-11T16:05:56.508Z,36.92
2023-02-11T16:08:29.934Z,38.08
2023-02-11T16:11:02.465Z,34.83
2023-02-11T16:13:35.362Z,35.38
2023-02-11T16:16:04.652Z,35.00
2023-02-11T16:18:39.623Z,35.55
2023-02-11T16:21:14.723Z,38.28
2023-02-11T16:23:42.507Z,36.08
2023-02-11T16:26:32.994Z,36.17
2023-02-11T16:29:11.354Z,37.42
2023-02-11T16:31:40.992Z,35.10
2023-02-11T16:34:18.734Z,31.95
2023-02-11T16:36:46.739Z,33.72
2023-02-11T16:39:13.754Z,38.28
2023-02-11T16:41:44.110Z,36.50
2023-02-11T16:44:10.776Z,38.75
2023-02-11T16:46:37.811Z,36.10
2023-02-11T16:49:32.286Z,41.10
2023-02-11T16:52:03.534Z,38.67
2023-02-11T16:54:30.288Z,48.33
2023-02-11T16:56:57.412Z,52.17
2023-02-11T16:59:24.293Z,62.13
2023-02-11T17:01:53.086Z,46.13
2023-02-11T17:04:28.400Z,42.75
2023-02-11T17:06:58.165Z,44.47
2023-02-11T17:09:30.332Z,48.63
2023-02-11T17:11:57.671Z,45.75
2023-02-11T17:14:24.637Z,39.45
2023-02-11T17:16:51.321Z,36.25
2023-02-11T17:19:22.423Z,45.63
2023-02-11T17:21:52.166Z,38.92
2023-02-11T17:24:20.292Z,35.13
2023-02-11T17:26:48.119Z,36.22
2023-02-11T17:29:17.549Z,37.75
2023-02-11T17:31:44.611Z,35.33
2023-02-11T17:34:11.701Z,37.67
2023-02-11T17:36:39.237Z,40.00
2023-02-11T17:39:08.261Z,56.33
2023-02-11T17:41:36.117Z,56.50
2023-02-11T17:44:02.801Z,43.78
2023-02-11T17:46:29.570Z,48.28
2023-02-11T17:48:58.819Z,54.05
2023-02-11T17:51:29.469Z,46.30
2023-02-11T17:53:59.964Z,41.28
2023-02-11T17:56:26.760Z,42.05
2023-02-11T17:58:53.468Z,47.92
2023-02-11T18:01:20.567Z,44.25
2023-02-11T18:03:47.705Z,39.85
2023-02-11T18:06:14.486Z,36.63
2023-02-11T18:08:43.010Z,37.17
2023-02-11T18:11:11.608Z,47.13
2023-02-11T18:13:38.379Z,42.08
2023-02-11T18:16:06.291Z,32.22
2023-02-11T18:18:33.098Z,32.58
2023-02-11T18:21:03.856Z,31.08
2023-02-11T18:23:30.855Z,26.25
2023-02-11T18:25:57.718Z,36.08
2023-02-11T18:28:24.402Z,29.42
2023-02-11T18:31:00.353Z,30.85
2023-02-11T18:33:28.234Z,34.42
2023-02-11T18:35:55.124Z,28.80
2023-02-11T18:38:22.829Z,32.55
2023-02-11T18:40:52.478Z,28.63
2023-02-11T18:43:22.676Z,29.17
2023-02-11T18:48:17.805Z,29.75
2023-02-11T18:50:46.063Z,34.45
2023-02-11T18:53:14.005Z,33.45
2023-02-11T18:55:42.325Z,30.52
2023-02-11T18:58:09.326Z,33.38
2023-02-11T19:00:37.259Z,27.92
2023-02-11T19:03:04.045Z,30.08
2023-02-11T19:05:33.406Z,32.13
2023-02-11T19:08:00.922Z,27.15
2023-02-11T19:10:28.364Z,29.65
2023-02-11T19:12:56.442Z,32.78
2023-02-11T19:15:23.153Z,45.30
2023-02-11T19:17:49.933Z,33.38
2023-02-11T19:20:17.067Z,30.55
2023-02-11T19:22:44.374Z,32.80
2023-02-11T19:25:12.168Z,31.80
2023-02-11T19:27:41.751Z,33.30
2023-02-11T19:30:10.467Z,30.05
2023-02-11T19:32:37.146Z,32.63
2023-02-11T19:35:03.998Z,34.38
2023-02-11T19:37:30.721Z,30.17
2023-02-11T19:39:57.390Z,32.40
2023-02-11T19:42:27.136Z,29.63
2023-02-11T19:47:27.495Z,46.90
2023-02-11T19:49:54.643Z,47.28
2023-02-11T19:52:21.442Z,31.30
2023-02-11T19:54:48.298Z,30.48
2023-02-11T19:57:15.114Z,37.80
2023-02-11T19:59:41.876Z,32.47
2023-02-11T20:02:11.336Z,29.05
2023-02-11T20:04:38.074Z,32.10
2023-02-11T20:07:04.831Z,29.38
2023-02-11T20:09:31.805Z,33.72
2023-02-11T20:11:58.840Z,28.60
2023-02-11T20:14:27.821Z,31.52
2023-02-11T20:16:54.729Z,27.17
2023-02-11T20:19:22.292Z,28.70
2023-02-11T20:21:52.242Z,27.83
2023-02-11T20:24:19.525Z,27.17
2023-02-11T20:26:48.348Z,25.80
2023-02-11T20:29:17.087Z,30.08
2023-02-11T20:31:44.067Z,31.00
2023-02-11T20:34:12.079Z,25.05
2023-02-11T20:36:40.269Z,25.63
2023-02-11T20:39:07.550Z,29.65
2023-02-11T20:41:36.507Z,27.70
2023-02-11T20:44:06.812Z,32.33
2023-02-11T20:46:34.479Z,28.23
2023-02-11T20:49:01.976Z,28.23
2023-02-11T20:51:32.046Z,28.27
2023-02-11T20:56:31.332Z,29.55
2023-02-11T20:58:59.040Z,30.70
2023-02-11T21:01:28.727Z,29.08
2023-02-11T21:04:00.323Z,29.38
2023-02-11T21:06:31.379Z,30.95
2023-02-11T21:08:58.036Z,33.72
2023-02-11T21:11:24.793Z,29.00
2023-02-11T21:13:51.503Z,29.65
2023-02-11T21:16:23.122Z,32.10
2023-02-11T21:18:50.955Z,28.33
2023-02-11T21:21:18.777Z,33.25
2023-02-11T21:23:46.191Z,29.77
2023-02-11T21:26:15.765Z,24.92
2023-02-11T21:28:42.589Z,27.75
2023-02-11T21:31:21.101Z,29.58
2023-02-11T21:33:49.255Z,26.38
2023-02-11T21:36:15.970Z,28.80
2023-02-11T21:38:42.638Z,27.20
2023-02-11T21:41:09.699Z,26.05
2023-02-11T21:43:36.424Z,29.95
2023-02-11T21:46:08.867Z,27.17
2023-02-11T21:48:35.691Z,25.77
2023-02-11T21:51:05.840Z,33.88
2023-02-11T21:56:13.142Z,25.00
2023-02-11T21:58:39.813Z,24.77
2023-02-11T22:01:13.642Z,25.40
2023-02-11T22:03:41.143Z,24.40
2023-02-11T22:06:09.750Z,25.17
2023-02-11T22:08:37.127Z,26.00
2023-02-11T22:11:06.429Z,20.80
2023-02-11T22:13:33.953Z,26.88
2023-02-11T22:16:03.693Z,24.17
2023-02-11T22:18:30.620Z,27.15
2023-02-11T22:21:02.420Z,23.95
2023-02-11T22:23:29.713Z,26.48
2023-02-11T22:25:56.968Z,24.65
2023-02-11T22:28:25.433Z,28.85
2023-02-11T22:30:54.684Z,26.73
2023-02-11T22:33:22.424Z,29.03
2023-02-11T22:35:49.134Z,30.35
2023-02-11T22:38:15.770Z,32.28
2023-02-11T22:40:43.515Z,26.17
2023-02-11T22:43:10.660Z,25.60
2023-02-11T22:45:37.313Z,25.52
2023-02-11T22:48:04.265Z,24.95
2023-02-11T22:50:30.928Z,25.17
2023-02-11T22:52:57.616Z,32.58
2023-02-11T22:55:24.326Z,26.67
2023-02-11T22:57:50.984Z,26.45
2023-02-11T23:00:19.362Z,27.63
2023-02-11T23:02:46.429Z,25.23
2023-02-11T23:05:13.228Z,30.17
2023-02-11T23:07:39.865Z,31.95
2023-02-11T23:10:07.137Z,31.90
2023-02-11T23:12:33.921Z,30.70
2023-02-11T23:15:02.617Z,31.75
2023-02-11T23:17:30.741Z,33.83
2023-02-11T23:19:57.443Z,29.35
2023-02-11T23:22:24.102Z,32.10
2023-02-11T23:24:50.814Z,31.50
2023-02-11T23:27:17.648Z,32.17
2023-02-11T23:29:44.393Z,31.88
2023-02-11T23:32:11.505Z,32.13
2023-02-11T23:34:38.186Z,29.20
2023-02-11T23:37:04.851Z,39.53
2023-02-11T23:39:31.610Z,29.58
2023-02-11T23:41:59.539Z,28.85
2023-02-11T23:44:27.220Z,28.98
2023-02-11T23:46:54.316Z,32.08
2023-02-11T23:49:20.947Z,27.80
2023-02-11T23:51:47.677Z,33.42
2023-02-11T23:54:15.002Z,29.83
2023-02-11T23:56:45.125Z,33.20
2023-02-11T23:59:12.214Z,29.08
